sensor_id;sensor_type;location;lat;lon;timestamp;pressure;altitude;pressure_sealevel;temperature;humidity
24746;BME280;12845;52.042;6.838;2023-03-21T00:01:04;-18279.00;;;9.32;100.00
24746;BME280;12845;52.042;6.838;2023-03-21T00:03:32;-18278.88;;;9.32;100.00
24746;BME280;12845;52.042;6.838;2023-03-21T00:06:03;-18278.59;;;9.31;100.00
24746;BME280;12845;52.042;6.838;2023-03-21T00:08:29;-18278.19;;;9.29;100.00
24746;BME280;12845;52.042;6.838;2023-03-21T00:10:59;-18278.19;;;9.29;100.00
24746;BME280;12845;52.042;6.838;2023-03-21T00:13:26;-18280.13;;;9.36;100.00
24746;BME280;12845;52.042;6.838;2023-03-21T00:15:53;-18278.75;;;9.31;100.00
24746;BME280;12845;52.042;6.838;2023-03-21T00:18:20;-18278.75;;;9.31;100.00
24746;BME280;12845;52.042;6.838;2023-03-21T00:21:01;-18278.19;;;9.29;100.00
24746;BME280;12845;52.042;6.838;2023-03-21T00:23:28;-18278.06;;;9.29;100.00
24746;BME280;12845;52.042;6.838;2023-03-21T00:25:53;-18277.78;;;9.27;100.00
24746;BME280;12845;52.042;6.838;2023-03-21T00:28:19;-18279.00;;;9.32;100.00
24746;BME280;12845;52.042;6.838;2023-03-21T00:30:45;-18278.47;;;9.30;100.00
24746;BME280;12845;52.042;6.838;2023-03-21T00:33:10;-18278.06;;;9.29;100.00
24746;BME280;12845;52.042;6.838;2023-03-21T00:35:38;-18278.88;;;9.32;100.00
24746;BME280;12845;52.042;6.838;2023-03-21T00:38:03;-18279.00;;;9.32;100.00
24746;BME280;12845;52.042;6.838;2023-03-21T00:40:31;-18278.59;;;9.31;100.00
24746;BME280;12845;52.042;6.838;2023-03-21T00:42:57;-18278.47;;;9.30;100.00
24746;BME280;12845;52.042;6.838;2023-03-21T00:45:22;-18279.16;;;9.33;100.00
24746;BME280;12845;52.042;6.838;2023-03-21T00:47:47;-18279.16;;;9.33;100.00
24746;BME280;12845;52.042;6.838;2023-03-21T00:50:13;-18279.16;;;9.33;100.00
24746;BME280;12845;52.042;6.838;2023-03-21T00:52:38;-18279.56;;;9.34;100.00
24746;BME280;12845;52.042;6.838;2023-03-21T00:55:04;-18279.69;;;9.35;100.00
24746;BME280;12845;52.042;6.838;2023-03-21T00:57:30;-18279.44;;;9.34;100.00
24746;BME280;12845;52.042;6.838;2023-03-21T00:59:56;-18279.97;;;9.36;100.00
24746;BME280;12845;52.042;6.838;2023-03-21T01:02:23;-18280.53;;;9.38;100.00
24746;BME280;12845;52.042;6.838;2023-03-21T01:04:51;-18280.38;;;9.37;100.00
24746;BME280;12845;52.042;6.838;2023-03-21T01:07:17;-18280.81;;;9.39;100.00
24746;BME280;12845;52.042;6.838;2023-03-21T01:09:42;-18280.53;;;9.38;100.00
24746;BME280;12845;52.042;6.838;2023-03-21T01:12:07;-18281.06;;;9.40;100.00
24746;BME280;12845;52.042;6.838;2023-03-21T01:14:33;-18280.53;;;9.38;100.00
24746;BME280;12845;52.042;6.838;2023-03-21T01:16:58;-18280.94;;;9.39;100.00
24746;BME280;12845;52.042;6.838;2023-03-21T01:19:24;-18281.06;;;9.40;100.00
24746;BME280;12845;52.042;6.838;2023-03-21T01:21:54;-18280.53;;;9.38;100.00
24746;BME280;12845;52.042;6.838;2023-03-21T01:24:20;-18280.81;;;9.39;100.00
24746;BME280;12845;52.042;6.838;2023-03-21T01:26:45;-18280.53;;;9.38;100.00
24746;BME280;12845;52.042;6.838;2023-03-21T01:29:11;-18280.81;;;9.39;100.00
24746;BME280;12845;52.042;6.838;2023-03-21T01:31:36;-18280.81;;;9.39;100.00
24746;BME280;12845;52.042;6.838;2023-03-21T01:34:01;-18280.94;;;9.39;100.00
24746;BME280;12845;52.042;6.838;2023-03-21T01:36:27;-18280.94;;;9.39;100.00
24746;BME280;12845;52.042;6.838;2023-03-21T01:38:52;-18280.25;;;9.37;100.00
24746;BME280;12845;52.042;6.838;2023-03-21T01:41:33;-18280.25;;;9.37;100.00
24746;BME280;12845;52.042;6.838;2023-03-21T01:43:59;-18280.13;;;9.36;100.00
24746;BME280;12845;52.042;6.838;2023-03-21T01:46:42;-18279.16;;;9.33;100.00
24746;BME280;12845;52.042;6.838;2023-03-21T01:49:27;-18277.91;;;9.28;100.00
24746;BME280;12845;52.042;6.838;2023-03-21T01:52:04;-18277.50;;;9.26;100.00
24746;BME280;12845;52.042;6.838;2023-03-21T01:54:33;-18277.09;;;9.25;100.00
24746;BME280;12845;52.042;6.838;2023-03-21T01:57:04;-18276.66;;;9.23;100.00
24746;BME280;12845;52.042;6.838;2023-03-21T01:59:43;-18276.53;;;9.23;100.00
24746;BME280;12845;52.042;6.838;2023-03-21T02:02:16;-18276.00;;;9.21;100.00
24746;BME280;12845;52.042;6.838;2023-03-21T02:04:44;-18275.72;;;9.20;100.00
24746;BME280;12845;52.042;6.838;2023-03-21T02:07:17;-18274.75;;;9.16;100.00
24746;BME280;12845;52.042;6.838;2023-03-21T02:09:47;-18273.94;;;9.13;100.00
24746;BME280;12845;52.042;6.838;2023-03-21T02:12:14;-18273.38;;;9.11;100.00
24746;BME280;12845;52.042;6.838;2023-03-21T02:14:41;-18272.97;;;9.10;100.00
24746;BME280;12845;52.042;6.838;2023-03-21T02:17:09;-18273.50;;;9.12;100.00
24746;BME280;12845;52.042;6.838;2023-03-21T02:19:57;-18271.84;;;9.06;100.00
24746;BME280;12845;52.042;6.838;2023-03-21T02:28:26;-18269.09;;;8.95;100.00
24746;BME280;12845;52.042;6.838;2023-03-21T02:39:20;-18271.31;;;9.03;100.00
24746;BME280;12845;52.042;6.838;2023-03-21T02:44:32;-18270.75;;;9.01;100.00
24746;BME280;12845;52.042;6.838;2023-03-21T02:47:40;-18270.63;;;9.01;100.00
24746;BME280;12845;52.042;6.838;2023-03-21T02:50:08;-18270.91;;;9.02;100.00
24746;BME280;12845;52.042;6.838;2023-03-21T02:52:37;-18270.47;;;9.00;100.00
24746;BME280;12845;52.042;6.838;2023-03-21T02:55:05;-18270.75;;;9.01;100.00
24746;BME280;12845;52.042;6.838;2023-03-21T02:57:38;-18271.03;;;9.02;100.00
24746;BME280;12845;52.042;6.838;2023-03-21T03:00:05;-18271.16;;;9.03;100.00
24746;BME280;12845;52.042;6.838;2023-03-21T03:02:36;-18271.59;;;9.04;100.00
24746;BME280;12845;52.042;6.838;2023-03-21T03:05:32;-18271.59;;;9.04;100.00
24746;BME280;12845;52.042;6.838;2023-03-21T03:10:42;-18271.59;;;9.04;100.00
24746;BME280;12845;52.042;6.838;2023-03-21T03:13:33;-18271.16;;;9.03;100.00
24746;BME280;12845;52.042;6.838;2023-03-21T03:16:21;-18270.75;;;9.01;100.00
24746;BME280;12845;52.042;6.838;2023-03-21T03:19:00;-18270.63;;;9.01;100.00
24746;BME280;12845;52.042;6.838;2023-03-21T03:24:09;-18271.03;;;9.02;100.00
24746;BME280;12845;52.042;6.838;2023-03-21T03:26:44;-18271.44;;;9.04;100.00
24746;BME280;12845;52.042;6.838;2023-03-21T03:29:14;-18273.50;;;9.12;100.00
24746;BME280;12845;52.042;6.838;2023-03-21T03:32:06;-18274.88;;;9.17;100.00
24746;BME280;12845;52.042;6.838;2023-03-21T03:34:35;-18273.66;;;9.12;100.00
24746;BME280;12845;52.042;6.838;2023-03-21T03:37:12;-18273.38;;;9.11;100.00
24746;BME280;12845;52.042;6.838;2023-03-21T03:39:45;-18273.50;;;9.12;100.00
24746;BME280;12845;52.042;6.838;2023-03-21T03:42:17;-18272.53;;;9.08;100.00
24746;BME280;12845;52.042;6.838;2023-03-21T03:44:44;-18272.97;;;9.10;100.00
24746;BME280;12845;52.042;6.838;2023-03-21T03:50:08;-18273.66;;;9.12;100.00
24746;BME280;12845;52.042;6.838;2023-03-21T03:52:39;-18274.47;;;9.15;100.00
24746;BME280;12845;52.042;6.838;2023-03-21T03:55:10;-18275.31;;;9.18;100.00
24746;BME280;12845;52.042;6.838;2023-03-21T03:57:37;-18276.00;;;9.21;100.00
24746;BME280;12845;52.042;6.838;2023-03-21T04:00:04;-18276.41;;;9.22;100.00
24746;BME280;12845;52.042;6.838;2023-03-21T04:02:36;-18277.78;;;9.27;100.00
24746;BME280;12845;52.042;6.838;2023-03-21T04:05:01;-18277.50;;;9.26;100.00
24746;BME280;12845;52.042;6.838;2023-03-21T04:07:28;-18276.66;;;9.23;100.00
24746;BME280;12845;52.042;6.838;2023-03-21T04:09:54;-18277.50;;;9.26;100.00
24746;BME280;12845;52.042;6.838;2023-03-21T04:12:19;-18276.66;;;9.23;100.00
24746;BME280;12845;52.042;6.838;2023-03-21T04:14:44;-18276.41;;;9.22;100.00
24746;BME280;12845;52.042;6.838;2023-03-21T04:17:10;-18276.13;;;9.21;100.00
24746;BME280;12845;52.042;6.838;2023-03-21T04:19:35;-18275.44;;;9.19;100.00
24746;BME280;12845;52.042;6.838;2023-03-21T04:22:00;-18275.56;;;9.19;100.00
24746;BME280;12845;52.042;6.838;2023-03-21T04:24:26;-18276.00;;;9.21;100.00
24746;BME280;12845;52.042;6.838;2023-03-21T04:26:52;-18275.72;;;9.20;100.00
24746;BME280;12845;52.042;6.838;2023-03-21T04:29:18;-18276.81;;;9.24;100.00
24746;BME280;12845;52.042;6.838;2023-03-21T04:31:44;-18276.13;;;9.21;100.00
24746;BME280;12845;52.042;6.838;2023-03-21T04:34:10;-18276.25;;;9.22;100.00
24746;BME280;12845;52.042;6.838;2023-03-21T04:36:36;-18276.13;;;9.21;100.00
24746;BME280;12845;52.042;6.838;2023-03-21T04:39:12;-18275.84;;;9.20;100.00
24746;BME280;12845;52.042;6.838;2023-03-21T04:41:39;-18276.25;;;9.22;100.00
24746;BME280;12845;52.042;6.838;2023-03-21T04:44:05;-18276.25;;;9.22;100.00
24746;BME280;12845;52.042;6.838;2023-03-21T04:46:30;-18276.13;;;9.21;100.00
24746;BME280;12845;52.042;6.838;2023-03-21T04:48:56;-18276.41;;;9.22;100.00
24746;BME280;12845;52.042;6.838;2023-03-21T04:51:21;-18277.34;;;9.26;100.00
24746;BME280;12845;52.042;6.838;2023-03-21T04:53:46;-18280.25;;;9.37;100.00
24746;BME280;12845;52.042;6.838;2023-03-21T04:56:14;-18278.06;;;9.29;100.00
24746;BME280;12845;52.042;6.838;2023-03-21T04:58:40;-18277.91;;;9.28;100.00
24746;BME280;12845;52.042;6.838;2023-03-21T05:01:06;-18277.50;;;9.26;100.00
24746;BME280;12845;52.042;6.838;2023-03-21T05:03:32;-18278.75;;;9.31;100.00
24746;BME280;12845;52.042;6.838;2023-03-21T05:06:07;-18278.31;;;9.30;100.00
24746;BME280;12845;52.042;6.838;2023-03-21T05:08:34;-18276.66;;;9.23;100.00
24746;BME280;12845;52.042;6.838;2023-03-21T05:11:00;-18276.13;;;9.21;100.00
24746;BME280;12845;52.042;6.838;2023-03-21T05:13:25;-18276.66;;;9.23;100.00
24746;BME280;12845;52.042;6.838;2023-03-21T05:15:51;-18275.03;;;9.17;100.00
24746;BME280;12845;52.042;6.838;2023-03-21T05:18:16;-18277.09;;;9.25;100.00
24746;BME280;12845;52.042;6.838;2023-03-21T05:20:49;-18274.47;;;9.15;100.00
24746;BME280;12845;52.042;6.838;2023-03-21T05:23:18;-18273.50;;;9.12;100.00
24746;BME280;12845;52.042;6.838;2023-03-21T05:25:44;-18272.53;;;9.08;100.00
24746;BME280;12845;52.042;6.838;2023-03-21T05:28:09;-18273.66;;;9.12;100.00
24746;BME280;12845;52.042;6.838;2023-03-21T05:30:34;-18273.38;;;9.11;100.00
24746;BME280;12845;52.042;6.838;2023-03-21T05:33:00;-18273.38;;;9.11;100.00
24746;BME280;12845;52.042;6.838;2023-03-21T05:35:25;-18272.53;;;9.08;100.00
24746;BME280;12845;52.042;6.838;2023-03-21T05:37:51;-18272.81;;;9.09;100.00
24746;BME280;12845;52.042;6.838;2023-03-21T05:40:17;-18272.13;;;9.07;100.00
24746;BME280;12845;52.042;6.838;2023-03-21T05:42:44;-18270.47;;;9.00;100.00
24746;BME280;12845;52.042;6.838;2023-03-21T05:45:10;-18270.91;;;9.02;100.00
24746;BME280;12845;52.042;6.838;2023-03-21T05:47:35;-18269.25;;;8.96;100.00
24746;BME280;12845;52.042;6.838;2023-03-21T05:50:01;-18268.41;;;8.93;100.00
24746;BME280;12845;52.042;6.838;2023-03-21T05:52:26;-18267.72;;;8.90;100.00
24746;BME280;12845;52.042;6.838;2023-03-21T05:54:53;-18268.56;;;8.93;100.00
24746;BME280;12845;52.042;6.838;2023-03-21T05:57:19;-18268.69;;;8.94;100.00
24746;BME280;12845;52.042;6.838;2023-03-21T05:59:45;-18268.28;;;8.92;100.00
24746;BME280;12845;52.042;6.838;2023-03-21T06:02:10;-18270.75;;;9.01;100.00
24746;BME280;12845;52.042;6.838;2023-03-21T06:04:36;-18269.25;;;8.96;100.00
24746;BME280;12845;52.042;6.838;2023-03-21T06:07:02;-18267.47;;;8.89;100.00
24746;BME280;12845;52.042;6.838;2023-03-21T06:09:27;-18268.00;;;8.91;100.00
24746;BME280;12845;52.042;6.838;2023-03-21T06:11:54;-18269.25;;;8.96;100.00
24746;BME280;12845;52.042;6.838;2023-03-21T06:14:21;-18268.56;;;8.93;100.00
24746;BME280;12845;52.042;6.838;2023-03-21T06:16:46;-18268.00;;;8.91;100.00
24746;BME280;12845;52.042;6.838;2023-03-21T06:19:12;-18267.31;;;8.89;100.00
24746;BME280;12845;52.042;6.838;2023-03-21T06:21:38;-18265.66;;;8.82;100.00
24746;BME280;12845;52.042;6.838;2023-03-21T06:24:03;-18265.25;;;8.81;100.00
24746;BME280;12845;52.042;6.838;2023-03-21T06:26:29;-18267.03;;;8.88;100.00
24746;BME280;12845;52.042;6.838;2023-03-21T06:28:56;-18266.78;;;8.87;100.00
24746;BME280;12845;52.042;6.838;2023-03-21T06:31:21;-18265.25;;;8.81;100.00
24746;BME280;12845;52.042;6.838;2023-03-21T06:33:47;-18264.56;;;8.78;100.00
24746;BME280;12845;52.042;6.838;2023-03-21T06:36:13;-18264.00;;;8.76;100.00
24746;BME280;12845;52.042;6.838;2023-03-21T06:38:38;-18264.00;;;8.76;100.00
24746;BME280;12845;52.042;6.838;2023-03-21T06:41:05;-18264.56;;;8.78;100.00
24746;BME280;12845;52.042;6.838;2023-03-21T06:43:32;-18265.94;;;8.84;100.00
24746;BME280;12845;52.042;6.838;2023-03-21T06:45:57;-18265.81;;;8.83;100.00
24746;BME280;12845;52.042;6.838;2023-03-21T06:48:23;-18266.34;;;8.85;100.00
24746;BME280;12845;52.042;6.838;2023-03-21T06:50:49;-18265.94;;;8.84;100.00
24746;BME280;12845;52.042;6.838;2023-03-21T06:53:15;-18266.22;;;8.85;100.00
24746;BME280;12845;52.042;6.838;2023-03-21T06:55:40;-18264.00;;;8.76;100.00
24746;BME280;12845;52.042;6.838;2023-03-21T06:58:06;-18264.56;;;8.78;100.00
24746;BME280;12845;52.042;6.838;2023-03-21T07:00:31;-18264.97;;;8.80;100.00
24746;BME280;12845;52.042;6.838;2023-03-21T07:02:56;-18265.25;;;8.81;100.00
24746;BME280;12845;52.042;6.838;2023-03-21T07:05:22;-18264.56;;;8.78;100.00
24746;BME280;12845;52.042;6.838;2023-03-21T07:07:48;-18264.44;;;8.78;100.00
24746;BME280;12845;52.042;6.838;2023-03-21T07:10:14;-18263.75;;;8.75;100.00
24746;BME280;12845;52.042;6.838;2023-03-21T07:12:39;-18264.00;;;8.76;100.00
24746;BME280;12845;52.042;6.838;2023-03-21T07:15:06;-18265.13;;;8.80;100.00
24746;BME280;12845;52.042;6.838;2023-03-21T07:17:32;-18264.44;;;8.78;100.00
24746;BME280;12845;52.042;6.838;2023-03-21T07:19:58;-18264.00;;;8.76;100.00
24746;BME280;12845;52.042;6.838;2023-03-21T07:22:23;-18264.84;;;8.79;100.00
24746;BME280;12845;52.042;6.838;2023-03-21T07:24:49;-18264.28;;;8.77;100.00
24746;BME280;12845;52.042;6.838;2023-03-21T07:27:15;-18265.41;;;8.81;100.00
24746;BME280;12845;52.042;6.838;2023-03-21T07:29:40;-18266.63;;;8.86;100.00
24746;BME280;12845;52.042;6.838;2023-03-21T07:32:06;-18266.78;;;8.87;100.00
24746;BME280;12845;52.042;6.838;2023-03-21T07:34:32;-18267.03;;;8.88;100.00
24746;BME280;12845;52.042;6.838;2023-03-21T07:36:58;-18268.16;;;8.92;100.00
24746;BME280;12845;52.042;6.838;2023-03-21T07:39:25;-18268.28;;;8.92;100.00
24746;BME280;12845;52.042;6.838;2023-03-21T07:41:51;-18269.94;;;8.98;100.00
24746;BME280;12845;52.042;6.838;2023-03-21T07:44:16;-18270.06;;;8.99;100.00
24746;BME280;12845;52.042;6.838;2023-03-21T07:46:42;-18270.47;;;9.00;100.00
24746;BME280;12845;52.042;6.838;2023-03-21T07:49:07;-18271.44;;;9.04;100.00
24746;BME280;12845;52.042;6.838;2023-03-21T07:51:33;-18272.81;;;9.09;100.00
24746;BME280;12845;52.042;6.838;2023-03-21T07:54:00;-18272.28;;;9.07;100.00
24746;BME280;12845;52.042;6.838;2023-03-21T07:56:26;-18272.53;;;9.08;100.00
24746;BME280;12845;52.042;6.838;2023-03-21T07:58:52;-18273.09;;;9.10;100.00
24746;BME280;12845;52.042;6.838;2023-03-21T08:01:17;-18273.50;;;9.12;100.00
24746;BME280;12845;52.042;6.838;2023-03-21T08:03:46;-18273.66;;;9.12;100.00
24746;BME280;12845;52.042;6.838;2023-03-21T08:06:12;-18274.47;;;9.15;100.00
24746;BME280;12845;52.042;6.838;2023-03-21T08:08:38;-18276.25;;;9.22;100.00
24746;BME280;12845;52.042;6.838;2023-03-21T08:11:04;-18278.59;;;9.31;100.00
24746;BME280;12845;52.042;6.838;2023-03-21T08:13:30;-18277.78;;;9.27;100.00
24746;BME280;12845;52.042;6.838;2023-03-21T08:15:55;-18278.31;;;9.30;100.00
24746;BME280;12845;52.042;6.838;2023-03-21T08:18:20;-18280.13;;;9.36;100.00
24746;BME280;12845;52.042;6.838;2023-03-21T08:20:53;-18280.53;;;9.38;100.00
24746;BME280;12845;52.042;6.838;2023-03-21T08:23:19;-18281.63;;;9.42;100.00
24746;BME280;12845;52.042;6.838;2023-03-21T08:25:45;-18282.72;;;9.46;100.00
24746;BME280;12845;52.042;6.838;2023-03-21T08:28:11;-18284.09;;;9.51;100.00
24746;BME280;12845;52.042;6.838;2023-03-21T08:30:36;-18285.75;;;9.57;100.00
24746;BME280;12845;52.042;6.838;2023-03-21T08:33:02;-18285.47;;;9.56;100.00
24746;BME280;12845;52.042;6.838;2023-03-21T08:35:29;-18286.56;;;9.60;100.00
24746;BME280;12845;52.042;6.838;2023-03-21T08:37:55;-18286.84;;;9.61;100.00
24746;BME280;12845;52.042;6.838;2023-03-21T08:40:21;-18289.19;;;9.70;100.00
24746;BME280;12845;52.042;6.838;2023-03-21T08:42:46;-18290.16;;;9.74;100.00
24746;BME280;12845;52.042;6.838;2023-03-21T08:45:13;-18290.84;;;9.76;100.00
24746;BME280;12845;52.042;6.838;2023-03-21T08:47:39;-18291.81;;;9.80;100.00
24746;BME280;12845;52.042;6.838;2023-03-21T08:50:08;-18293.03;;;9.84;100.00
24746;BME280;12845;52.042;6.838;2023-03-21T08:52:33;-18294.28;;;9.89;100.00
24746;BME280;12845;52.042;6.838;2023-03-21T08:54:59;-18293.19;;;9.85;100.00
24746;BME280;12845;52.042;6.838;2023-03-21T08:57:26;-18295.09;;;9.92;100.00
24746;BME280;12845;52.042;6.838;2023-03-21T08:59:52;-18297.44;;;10.01;100.00
24746;BME280;12845;52.042;6.838;2023-03-21T09:02:17;-18298.69;;;10.05;100.00
24746;BME280;12845;52.042;6.838;2023-03-21T09:04:43;-18300.19;;;10.11;100.00
24746;BME280;12845;52.042;6.838;2023-03-21T09:07:09;-18300.59;;;10.12;100.00
24746;BME280;12845;52.042;6.838;2023-03-21T09:09:36;-18300.75;;;10.13;100.00
24746;BME280;12845;52.042;6.838;2023-03-21T09:12:02;-18301.97;;;10.17;100.00
24746;BME280;12845;52.042;6.838;2023-03-21T09:14:28;-18303.34;;;10.23;100.00
24746;BME280;12845;52.042;6.838;2023-03-21T09:16:53;-18304.59;;;10.27;100.00
24746;BME280;12845;52.042;6.838;2023-03-21T09:19:19;-18303.91;;;10.25;100.00
24746;BME280;12845;52.042;6.838;2023-03-21T09:21:44;-18303.91;;;10.25;100.00
24746;BME280;12845;52.042;6.838;2023-03-21T09:24:10;-18304.44;;;10.27;100.00
24746;BME280;12845;52.042;6.838;2023-03-21T09:26:37;-18305.81;;;10.32;100.00
24746;BME280;12845;52.042;6.838;2023-03-21T09:29:02;-18301.69;;;10.16;100.00
24746;BME280;12845;52.042;6.838;2023-03-21T09:31:30;-18300.88;;;10.13;100.00
24746;BME280;12845;52.042;6.838;2023-03-21T09:33:55;-18301.00;;;10.14;100.00
24746;BME280;12845;52.042;6.838;2023-03-21T09:36:21;-18300.06;;;10.10;100.00
24746;BME280;12845;52.042;6.838;2023-03-21T09:38:49;-18298.13;;;10.03;100.00
24746;BME280;12845;52.042;6.838;2023-03-21T09:52:31;-18295.66;;;9.94;100.00
24746;BME280;12845;52.042;6.838;2023-03-21T09:54:58;-18297.31;;;10.00;100.00
24746;BME280;12845;52.042;6.838;2023-03-21T09:57:29;-18297.31;;;10.00;100.00
24746;BME280;12845;52.042;6.838;2023-03-21T09:59:58;-18296.75;;;9.98;100.00
24746;BME280;12845;52.042;6.838;2023-03-21T10:02:40;-18296.19;;;9.96;100.00
24746;BME280;12845;52.042;6.838;2023-03-21T10:05:16;-18294.81;;;9.91;100.00
24746;BME280;12845;52.042;6.838;2023-03-21T10:07:46;-18295.94;;;9.95;100.00
24746;BME280;12845;52.042;6.838;2023-03-21T10:10:22;-18297.03;;;9.99;100.00
24746;BME280;12845;52.042;6.838;2023-03-21T10:12:52;-18298.00;;;10.03;100.00
24746;BME280;12845;52.042;6.838;2023-03-21T10:15:20;-18299.50;;;10.08;100.00
24746;BME280;12845;52.042;6.838;2023-03-21T10:17:51;-18299.38;;;10.08;100.00
24746;BME280;12845;52.042;6.838;2023-03-21T10:20:28;-18298.53;;;10.05;100.00
24746;BME280;12845;52.042;6.838;2023-03-21T10:22:55;-18299.78;;;10.09;100.00
24746;BME280;12845;52.042;6.838;2023-03-21T10:25:30;-18301.16;;;10.14;100.00
24746;BME280;12845;52.042;6.838;2023-03-21T10:27:57;-18302.25;;;10.19;100.00
24746;BME280;12845;52.042;6.838;2023-03-21T10:30:45;-18304.31;;;10.26;100.00
24746;BME280;12845;52.042;6.838;2023-03-21T10:33:22;-18304.44;;;10.27;100.00
24746;BME280;12845;52.042;6.838;2023-03-21T10:35:54;-18305.97;;;10.32;100.00
24746;BME280;12845;52.042;6.838;2023-03-21T10:38:23;-18306.94;;;10.36;100.00
24746;BME280;12845;52.042;6.838;2023-03-21T10:40:49;-18310.22;;;10.48;100.00
24746;BME280;12845;52.042;6.838;2023-03-21T10:43:17;-18311.47;;;10.53;100.00
24746;BME280;12845;52.042;6.838;2023-03-21T10:45:47;-18312.16;;;10.55;100.00
24746;BME280;12845;52.042;6.838;2023-03-21T10:48:13;-18310.09;;;10.48;100.00
24746;BME280;12845;52.042;6.838;2023-03-21T10:50:40;-18312.16;;;10.55;100.00
24746;BME280;12845;52.042;6.838;2023-03-21T10:53:15;-18312.44;;;10.56;100.00
24746;BME280;12845;52.042;6.838;2023-03-21T10:55:42;-18312.84;;;10.58;100.00
24746;BME280;12845;52.042;6.838;2023-03-21T10:58:14;-18312.84;;;10.58;100.00
24746;BME280;12845;52.042;6.838;2023-03-21T11:00:44;-18311.31;;;10.52;100.00
24746;BME280;12845;52.042;6.838;2023-03-21T11:03:22;-18312.84;;;10.58;100.00
24746;BME280;12845;52.042;6.838;2023-03-21T11:05:53;-18313.94;;;10.62;100.00
24746;BME280;12845;52.042;6.838;2023-03-21T11:08:19;-18313.78;;;10.61;100.00
24746;BME280;12845;52.042;6.838;2023-03-21T11:10:59;-18311.59;;;10.53;100.00
24746;BME280;12845;52.042;6.838;2023-03-21T11:13:33;-18311.31;;;10.52;100.00
24746;BME280;12845;52.042;6.838;2023-03-21T11:16:08;-18311.06;;;10.51;100.00
24746;BME280;12845;52.042;6.838;2023-03-21T11:18:40;-18311.19;;;10.52;100.00
24746;BME280;12845;52.042;6.838;2023-03-21T11:21:08;-18310.50;;;10.49;100.00
24746;BME280;12845;52.042;6.838;2023-03-21T11:23:37;-18310.50;;;10.49;100.00
24746;BME280;12845;52.042;6.838;2023-03-21T11:26:09;-18313.25;;;10.59;100.00
24746;BME280;12845;52.042;6.838;2023-03-21T11:28:37;-18313.78;;;10.61;100.00
24746;BME280;12845;52.042;6.838;2023-03-21T11:31:04;-18315.31;;;10.67;100.00
24746;BME280;12845;52.042;6.838;2023-03-21T11:33:54;-18317.38;;;10.75;100.00
24746;BME280;12845;52.042;6.838;2023-03-21T11:36:30;-18318.59;;;10.79;100.00
24746;BME280;12845;52.042;6.838;2023-03-21T11:39:11;-18319.56;;;10.83;100.00
24746;BME280;12845;52.042;6.838;2023-03-21T11:41:38;-18321.34;;;10.90;100.00
24746;BME280;12845;52.042;6.838;2023-03-21T11:44:04;-18318.19;;;10.78;100.00
24746;BME280;12845;52.042;6.838;2023-03-21T11:46:31;-18320.25;;;10.86;100.00
24746;BME280;12845;52.042;6.838;2023-03-21T11:49:01;-18321.75;;;10.91;100.00
24746;BME280;12845;52.042;6.838;2023-03-21T11:54:18;-18325.75;;;11.06;100.00
24746;BME280;12845;52.042;6.838;2023-03-21T11:56:52;-18328.63;;;11.17;100.00
24746;BME280;12845;52.042;6.838;2023-03-21T11:59:36;-18328.91;;;11.18;100.00
24746;BME280;12845;52.042;6.838;2023-03-21T12:13:21;-18334.13;;;11.37;100.00
24746;BME280;12845;52.042;6.838;2023-03-21T12:21:19;-18337.16;;;11.48;100.00
24746;BME280;12845;52.042;6.838;2023-03-21T12:26:30;-18339.34;;;11.57;100.00
24746;BME280;12845;52.042;6.838;2023-03-21T12:42:57;-18344.28;;;11.75;100.00
24746;BME280;12845;52.042;6.838;2023-03-21T12:45:30;-18345.09;;;11.78;100.00
24746;BME280;12845;52.042;6.838;2023-03-21T12:48:04;-18347.31;;;11.86;100.00
24746;BME280;12845;52.042;6.838;2023-03-21T12:50:33;-18348.94;;;11.92;100.00
24746;BME280;12845;52.042;6.838;2023-03-21T12:53:23;-18352.09;;;12.04;100.00
24746;BME280;12845;52.042;6.838;2023-03-21T12:55:52;-18353.88;;;12.11;100.00
24746;BME280;12845;52.042;6.838;2023-03-21T12:58:23;-18353.88;;;12.11;100.00
24746;BME280;12845;52.042;6.838;2023-03-21T13:00:52;-18354.31;;;12.12;100.00
24746;BME280;12845;52.042;6.838;2023-03-21T13:06:00;-18358.28;;;12.27;100.00
24746;BME280;12845;52.042;6.838;2023-03-21T13:08:55;-18360.19;;;12.34;100.00
24746;BME280;12845;52.042;6.838;2023-03-21T13:11:22;-18361.72;;;12.40;100.00
24746;BME280;12845;52.042;6.838;2023-03-21T13:16:51;-18358.28;;;12.27;100.00
24746;BME280;12845;52.042;6.838;2023-03-21T13:19:43;-18358.84;;;12.29;100.00
24746;BME280;12845;52.042;6.838;2023-03-21T13:22:27;-18359.78;;;12.33;100.00
24746;BME280;12845;52.042;6.838;2023-03-21T13:25:16;-18360.47;;;12.35;100.00
24746;BME280;12845;52.042;6.838;2023-03-21T13:27:42;-18360.47;;;12.35;100.00
24746;BME280;12845;52.042;6.838;2023-03-21T13:32:40;-18361.16;;;12.38;100.00
24746;BME280;12845;52.042;6.838;2023-03-21T13:37:50;-18360.88;;;12.37;100.00
24746;BME280;12845;52.042;6.838;2023-03-21T13:40:58;-18360.75;;;12.36;100.00
24746;BME280;12845;52.042;6.838;2023-03-21T13:51:54;-18362.66;;;12.44;100.00
24746;BME280;12845;52.042;6.838;2023-03-21T13:57:04;-18362.13;;;12.41;100.00
24746;BME280;12845;52.042;6.838;2023-03-21T14:02:31;-18361.84;;;12.40;100.00
24746;BME280;12845;52.042;6.838;2023-03-21T14:07:30;-18363.09;;;12.45;100.00
24746;BME280;12845;52.042;6.838;2023-03-21T14:10:06;-18362.00;;;12.41;100.00
24746;BME280;12845;52.042;6.838;2023-03-21T14:12:37;-18360.06;;;12.34;100.00
24746;BME280;12845;52.042;6.838;2023-03-21T14:15:11;-18359.78;;;12.33;100.00
24746;BME280;12845;52.042;6.838;2023-03-21T14:17:38;-18361.44;;;12.39;100.00
24746;BME280;12845;52.042;6.838;2023-03-21T14:20:24;-18362.81;;;12.44;100.00
24746;BME280;12845;52.042;6.838;2023-03-21T14:22:51;-18361.72;;;12.40;100.00
24746;BME280;12845;52.042;6.838;2023-03-21T14:25:19;-18361.72;;;12.40;100.00
24746;BME280;12845;52.042;6.838;2023-03-21T14:27:52;-18362.66;;;12.44;100.00
24746;BME280;12845;52.042;6.838;2023-03-21T14:30:21;-18361.84;;;12.40;100.00
24746;BME280;12845;52.042;6.838;2023-03-21T14:32:48;-18361.44;;;12.39;100.00
24746;BME280;12845;52.042;6.838;2023-03-21T14:35:14;-18359.66;;;12.32;100.00
24746;BME280;12845;52.042;6.838;2023-03-21T14:37:44;-18360.06;;;12.34;100.00